createdAt,value
2018-04-18T00:02:14.248Z,91.81
2018-04-18T00:04:45.016Z,91.91
2018-04-18T00:07:15.853Z,91.92
2018-04-18T00:09:47.240Z,91.93
2018-04-18T00:12:18.076Z,91.99
2018-04-18T00:14:48.871Z,91.95
2018-04-18T00:17:19.677Z,92.15
2018-04-18T00:19:50.468Z,92.26
2018-04-18T00:22:21.282Z,92.34
2018-04-18T00:24:52.047Z,92.49
2018-04-18T00:27:22.891Z,92.64
2018-04-18T00:29:53.716Z,92.71
2018-04-18T00:32:24.568Z,92.83
2018-04-18T00:34:55.431Z,92.94
2018-04-18T00:37:26.229Z,92.95
2018-04-18T00:39:57.038Z,93.28
2018-04-18T00:42:27.847Z,93.43
2018-04-18T00:44:58.612Z,93.69
2018-04-18T00:47:29.427Z,93.69
2018-04-18T00:50:00.225Z,93.68
2018-04-18T00:52:31.055Z,93.69
2018-04-18T00:55:01.845Z,93.91
2018-04-18T00:57:32.673Z,94.26
2018-04-18T01:00:03.490Z,94.59
2018-04-18T01:02:34.326Z,94.87
2018-04-18T01:05:05.106Z,95.11
2018-04-18T01:07:35.922Z,95.19
2018-04-18T01:10:06.712Z,95.40
2018-04-18T01:12:37.515Z,95.55
2018-04-18T01:15:08.296Z,95.59
2018-04-18T01:17:39.104Z,95.76
2018-04-18T01:20:09.933Z,95.95
2018-04-18T01:22:40.740Z,96.11
2018-04-18T01:25:11.522Z,96.29
2018-04-18T01:27:42.318Z,96.28
2018-04-18T01:30:13.131Z,96.23
2018-04-18T01:32:43.999Z,96.26
2018-04-18T01:35:14.809Z,96.47
2018-04-18T01:37:45.600Z,96.61
2018-04-18T01:40:16.379Z,96.78
2018-04-18T01:42:47.234Z,96.96
2018-04-18T01:45:18.047Z,97.02
2018-04-18T01:47:48.871Z,96.89
2018-04-18T01:50:19.714Z,96.69
2018-04-18T01:52:50.532Z,96.71
2018-04-18T01:55:21.330Z,96.50
2018-04-18T01:57:52.155Z,96.46
2018-04-18T02:00:22.989Z,96.39
2018-04-18T02:02:53.852Z,96.40
2018-04-18T02:05:24.660Z,96.46
2018-04-18T02:07:55.476Z,96.46
2018-04-18T02:10:26.259Z,96.57
2018-04-18T02:12:57.080Z,96.76
2018-04-18T02:15:27.868Z,97.00
2018-04-18T02:17:58.647Z,97.09
2018-04-18T02:20:29.446Z,97.16
2018-04-18T02:23:00.280Z,97.22
2018-04-18T02:25:31.076Z,97.25
2018-04-18T02:28:01.885Z,97.34
2018-04-18T02:30:32.667Z,97.50
2018-04-18T02:33:03.483Z,97.62
2018-04-18T02:35:34.281Z,97.71
2018-04-18T02:38:05.065Z,97.80
2018-04-18T02:40:35.844Z,97.91
2018-04-18T02:43:06.651Z,97.95
2018-04-18T02:45:37.426Z,97.98
2018-04-18T02:48:08.261Z,97.99
2018-04-18T02:50:39.597Z,97.84
2018-04-18T02:53:10.398Z,97.77
2018-04-18T02:55:41.233Z,97.78
2018-04-18T02:58:12.030Z,97.68
2018-04-18T03:00:42.809Z,97.56
2018-04-18T03:03:13.609Z,97.45
2018-04-18T03:05:44.371Z,97.44
2018-04-18T03:08:15.153Z,97.42
2018-04-18T03:10:45.923Z,97.45
2018-04-18T03:13:16.707Z,97.57
2018-04-18T03:15:47.475Z,97.72
2018-04-18T03:18:18.283Z,97.89
2018-04-18T03:20:49.048Z,98.08
2018-04-18T03:23:19.837Z,98.24
2018-04-18T03:25:50.620Z,98.34
2018-04-18T03:28:21.424Z,98.27
2018-04-18T03:30:52.205Z,98.26
2018-04-18T03:33:22.995Z,98.34
2018-04-18T03:35:53.791Z,98.28
2018-04-18T03:38:24.576Z,98.37
2018-04-18T03:40:56.245Z,98.42
2018-04-18T03:43:27.069Z,98.36
2018-04-18T03:45:57.870Z,98.45
2018-04-18T03:48:28.661Z,98.55
2018-04-18T03:50:59.497Z,98.61
2018-04-18T03:53:30.307Z,98.69
2018-04-18T03:56:01.083Z,98.79
2018-04-18T03:58:31.885Z,98.85
2018-04-18T04:01:02.666Z,98.92
2018-04-18T04:03:33.459Z,98.98
2018-04-18T04:06:04.267Z,99.04
2018-04-18T04:08:35.064Z,99.04
2018-04-18T04:11:05.840Z,99.07
2018-04-18T04:13:36.665Z,99.10
2018-04-18T04:16:19.870Z,98.96
2018-04-18T04:19:03.140Z,98.94
2018-04-18T04:21:46.344Z,98.97
2018-04-18T04:24:26.340Z,99.02
2018-04-18T04:26:57.198Z,99.05
2018-04-18T04:29:27.995Z,99.14
2018-04-18T04:31:59.299Z,99.19
2018-04-18T04:34:31.112Z,99.28
2018-04-18T04:37:01.905Z,99.33
2018-04-18T04:39:32.712Z,99.41
2018-04-18T04:42:03.467Z,99.34
2018-04-18T04:44:34.257Z,99.34
2018-04-18T04:47:05.027Z,99.33
2018-04-18T04:49:35.820Z,99.33
2018-04-18T04:52:06.594Z,99.29
2018-04-18T04:54:37.371Z,99.17
2018-04-18T04:57:08.212Z,98.99
2018-04-18T04:59:39.051Z,98.84
2018-04-18T05:02:09.816Z,98.68
2018-04-18T05:04:40.628Z,98.35
2018-04-18T05:07:11.420Z,98.13
2018-04-18T05:09:42.316Z,97.92
2018-04-18T05:12:13.084Z,97.71
2018-04-18T05:14:43.895Z,96.91
2018-04-18T05:17:14.660Z,96.22
2018-04-18T05:19:45.446Z,95.77
2018-04-18T05:22:16.231Z,95.44
2018-04-18T05:24:47.055Z,94.71
2018-04-18T05:27:17.843Z,94.04
2018-04-18T05:29:48.681Z,93.12
2018-04-18T05:32:19.477Z,92.40
2018-04-18T05:34:50.338Z,90.85
2018-04-18T05:37:21.162Z,86.30
2018-04-18T05:39:51.956Z,78.13
2018-04-18T05:42:22.751Z,75.15
2018-04-18T05:44:53.676Z,71.10
2018-04-18T05:47:24.467Z,65.23
2018-04-18T05:49:55.348Z,62.01
2018-04-18T05:52:26.116Z,59.41
2018-04-18T05:54:57.022Z,57.03
2018-04-18T05:57:27.803Z,56.99
2018-04-18T05:59:58.625Z,52.68
2018-04-18T06:02:29.438Z,51.39
2018-04-18T06:05:01.316Z,48.81
2018-04-18T06:07:32.129Z,48.23
2018-04-18T06:10:02.979Z,50.62
2018-04-18T06:12:33.771Z,51.95
2018-04-18T06:15:04.551Z,53.20
2018-04-18T06:17:35.331Z,54.11
2018-04-18T06:20:06.184Z,54.85
2018-04-18T06:22:37.008Z,60.81
2018-04-18T06:25:14.723Z,62.23
2018-04-18T06:27:45.631Z,59.08
2018-04-18T06:30:17.482Z,56.46
2018-04-18T06:32:48.309Z,52.23
2018-04-18T06:35:19.107Z,52.21
2018-04-18T06:37:49.897Z,52.56
2018-04-18T06:40:20.704Z,50.74
2018-04-18T06:42:51.461Z,49.84
2018-04-18T06:45:22.280Z,47.22
2018-04-18T06:47:53.060Z,45.83
2018-04-18T06:50:23.873Z,46.20
2018-04-18T06:52:54.671Z,45.57
2018-04-18T06:55:25.473Z,42.98
2018-04-18T06:57:56.256Z,43.22
2018-04-18T07:00:27.087Z,41.43
2018-04-18T07:02:57.960Z,40.48
2018-04-18T07:05:28.796Z,40.69
2018-04-18T07:07:59.577Z,42.17
2018-04-18T07:10:30.396Z,40.16
2018-04-18T07:13:01.166Z,38.97
2018-04-18T07:15:31.959Z,37.41
2018-04-18T07:18:02.744Z,37.20
2018-04-18T07:20:33.531Z,37.88
2018-04-18T07:23:04.349Z,37.72
2018-04-18T07:25:35.203Z,37.77
2018-04-18T07:28:05.983Z,37.92
2018-04-18T07:30:36.791Z,38.46
2018-04-18T07:33:07.597Z,38.80
2018-04-18T07:35:38.395Z,38.96
2018-04-18T07:38:09.183Z,38.30
2018-04-18T07:40:40.007Z,39.49
2018-04-18T07:43:10.815Z,39.88
2018-04-18T07:45:41.648Z,40.71
2018-04-18T07:48:12.437Z,40.75
2018-04-18T07:50:43.351Z,38.22
2018-04-18T07:53:14.153Z,40.27
2018-04-18T07:55:44.992Z,43.68
2018-04-18T07:58:15.801Z,42.72
2018-04-18T08:00:46.612Z,43.50
2018-04-18T08:03:17.389Z,41.52
2018-04-18T08:05:48.185Z,40.63
2018-04-18T08:08:18.964Z,40.66
2018-04-18T08:10:49.839Z,41.98
2018-04-18T08:13:20.644Z,42.11
2018-04-18T08:15:51.431Z,42.18
2018-04-18T08:18:22.232Z,41.99
2018-04-18T08:20:53.029Z,42.85
2018-04-18T08:23:23.855Z,42.89
2018-04-18T08:25:54.639Z,40.79
2018-04-18T08:28:25.436Z,40.25
2018-04-18T08:30:56.244Z,41.43
2018-04-18T08:33:27.016Z,42.13
2018-04-18T08:35:57.800Z,40.56
2018-04-18T08:38:28.563Z,41.23
2018-04-18T08:40:59.356Z,42.10
2018-04-18T08:43:30.209Z,40.91
2018-04-18T08:46:01.016Z,42.17
2018-04-18T08:48:31.897Z,39.51
2018-04-18T08:51:02.691Z,42.14
2018-04-18T08:53:33.609Z,43.35
2018-04-18T08:56:04.436Z,42.54
2018-04-18T08:58:35.232Z,43.50
2018-04-18T09:01:06.097Z,42.95
2018-04-18T09:03:36.929Z,40.63
2018-04-18T09:06:07.719Z,41.76
2018-04-18T09:08:40.556Z,39.58
2018-04-18T09:11:11.443Z,39.71
2018-04-18T09:13:42.252Z,39.99
2018-04-18T09:16:13.044Z,39.11
2018-04-18T09:18:43.904Z,39.51
2018-04-18T09:21:14.676Z,38.18
2018-04-18T09:23:45.440Z,38.62
2018-04-18T09:26:16.263Z,39.80
2018-04-18T09:28:47.077Z,40.47
2018-04-18T09:31:17.920Z,40.72
2018-04-18T09:33:48.688Z,40.36
2018-04-18T09:36:19.515Z,40.59
2018-04-18T09:38:50.328Z,40.06
2018-04-18T09:41:21.114Z,40.10
2018-04-18T09:43:51.900Z,40.75
2018-04-18T09:46:22.757Z,41.53
2018-04-18T09:48:53.537Z,37.67
2018-04-18T09:51:24.348Z,37.40
2018-04-18T09:53:55.180Z,38.15
2018-04-18T09:56:25.981Z,37.38
2018-04-18T09:58:56.755Z,38.91
2018-04-18T10:01:33.737Z,38.93
2018-04-18T10:04:09.340Z,37.82
2018-04-18T10:06:40.161Z,36.77
2018-04-18T10:09:11.035Z,36.03
2018-04-18T10:11:41.944Z,35.86
2018-04-18T10:14:12.787Z,34.59
2018-04-18T10:16:43.595Z,35.74
2018-04-18T10:19:14.404Z,35.43
2018-04-18T10:21:45.208Z,34.78
2018-04-18T10:24:15.984Z,34.23
2018-04-18T10:26:46.772Z,33.10
2018-04-18T10:29:17.612Z,34.22
2018-04-18T10:31:48.428Z,32.98
2018-04-18T10:34:19.220Z,32.88
2018-04-18T10:36:50.065Z,34.05
2018-04-18T10:39:24.527Z,35.75
2018-04-18T10:41:55.333Z,33.92
2018-04-18T10:44:26.121Z,34.60
2018-04-18T10:46:56.907Z,34.55
2018-04-18T10:49:27.738Z,33.12
2018-04-18T10:51:58.572Z,32.19
2018-04-18T10:54:29.487Z,33.73
2018-04-18T10:57:00.315Z,34.15
2018-04-18T10:59:31.108Z,32.82
2018-04-18T11:02:01.976Z,32.03
2018-04-18T11:04:32.792Z,30.86
2018-04-18T11:07:03.719Z,31.84
2018-04-18T11:09:35.503Z,32.30
2018-04-18T11:12:06.316Z,31.89
2018-04-18T11:14:37.071Z,32.08
2018-04-18T11:17:07.951Z,31.02
2018-04-18T11:19:38.769Z,31.26
2018-04-18T11:22:09.586Z,32.89
2018-04-18T11:24:40.386Z,32.52
2018-04-18T11:27:11.212Z,31.46
2018-04-18T11:29:41.992Z,32.61
2018-04-18T11:32:12.821Z,32.97
2018-04-18T11:34:43.580Z,31.75
2018-04-18T11:37:14.461Z,31.87
2018-04-18T11:39:45.293Z,32.81
2018-04-18T11:42:16.130Z,32.51
2018-04-18T11:44:46.941Z,33.58
2018-04-18T11:47:17.734Z,34.07
2018-04-18T11:49:48.540Z,33.31
2018-04-18T11:52:19.395Z,33.51
2018-04-18T11:54:50.224Z,34.09
2018-04-18T11:57:22.120Z,34.61
2018-04-18T11:59:52.972Z,33.73
2018-04-18T12:02:23.739Z,32.98
2018-04-18T12:04:54.540Z,33.22
2018-04-18T12:07:25.365Z,31.61
2018-04-18T12:09:56.173Z,31.48
2018-04-18T12:12:26.957Z,31.99
2018-04-18T12:14:57.747Z,32.23
2018-04-18T12:17:28.545Z,31.72
2018-04-18T12:19:59.320Z,31.18
2018-04-18T12:22:30.190Z,29.84
2018-04-18T12:25:00.995Z,29.70
2018-04-18T12:27:31.811Z,29.62
2018-04-18T12:30:02.599Z,29.57
2018-04-18T12:32:33.440Z,30.23
2018-04-18T12:35:04.232Z,30.40
2018-04-18T12:37:35.032Z,28.93
2018-04-18T12:40:05.812Z,29.48
2018-04-18T12:42:36.630Z,28.79
2018-04-18T12:45:07.459Z,28.64
2018-04-18T12:47:38.288Z,29.06
2018-04-18T12:50:09.089Z,28.53
2018-04-18T12:52:41.079Z,26.65
2018-04-18T12:55:11.928Z,27.40
2018-04-18T12:57:42.735Z,26.05
2018-04-18T13:00:13.577Z,26.61
2018-04-18T13:02:44.392Z,27.14
2018-04-18T13:05:15.168Z,28.16
2018-04-18T13:07:45.992Z,26.22
2018-04-18T13:10:16.865Z,26.33
2018-04-18T13:12:50.869Z,26.74
2018-04-18T13:15:21.694Z,24.83
2018-04-18T13:17:52.501Z,23.25
2018-04-18T13:20:23.332Z,24.06
2018-04-18T13:22:54.176Z,23.58
2018-04-18T13:25:24.983Z,23.73
2018-04-18T13:27:55.886Z,23.32
2018-04-18T13:30:26.686Z,22.28
2018-04-18T13:32:57.543Z,21.71
2018-04-18T13:35:28.345Z,21.47
2018-04-18T13:37:59.180Z,22.41
2018-04-18T13:40:30.014Z,21.88
2018-04-18T13:43:00.814Z,20.95
2018-04-18T13:45:31.616Z,20.34
2018-04-18T13:48:02.484Z,18.95
2018-04-18T13:50:33.273Z,18.12
2018-04-18T13:53:04.102Z,17.89
2018-04-18T13:55:34.917Z,17.03
2018-04-18T13:58:05.728Z,16.43
2018-04-18T14:00:36.597Z,15.52
2018-04-18T14:03:07.427Z,14.96
2018-04-18T14:05:38.220Z,14.45
2018-04-18T14:08:09.010Z,19.46
2018-04-18T14:10:39.787Z,19.21
2018-04-18T14:13:10.612Z,18.15
2018-04-18T14:15:41.430Z,16.83
2018-04-18T14:18:12.269Z,17.41
2018-04-18T14:20:43.032Z,19.83
2018-04-18T14:23:13.896Z,22.52
2018-04-18T14:25:44.662Z,19.37
2018-04-18T14:28:15.523Z,19.00
2018-04-18T14:30:46.343Z,17.45
2018-04-18T14:33:17.157Z,19.18
2018-04-18T14:35:47.963Z,18.96
2018-04-18T14:38:18.759Z,18.01
2018-04-18T14:40:49.579Z,17.49
2018-04-18T14:43:20.401Z,17.00
2018-04-18T14:45:51.218Z,17.54
2018-04-18T14:48:22.021Z,17.92
2018-04-18T14:50:52.876Z,17.40
2018-04-18T14:53:23.669Z,17.54
2018-04-18T14:55:54.522Z,17.75
2018-04-18T14:58:25.344Z,18.25
2018-04-18T15:00:56.449Z,18.58
2018-04-18T15:03:27.225Z,19.83
2018-04-18T15:05:58.012Z,18.90
2018-04-18T15:08:28.828Z,19.81
2018-04-18T15:10:59.607Z,20.11
2018-04-18T15:13:30.413Z,21.29
2018-04-18T15:16:01.212Z,20.48
2018-04-18T15:18:32.062Z,20.53
2018-04-18T15:21:02.887Z,21.73
2018-04-18T15:23:33.680Z,21.99
2018-04-18T15:26:04.447Z,21.00
2018-04-18T15:28:35.315Z,20.66
2018-04-18T15:31:06.052Z,20.71
2018-04-18T15:33:36.844Z,21.79
2018-04-18T15:36:07.678Z,20.15
2018-04-18T15:38:38.499Z,20.00
2018-04-18T15:41:09.279Z,21.55
2018-04-18T15:43:40.100Z,20.62
2018-04-18T15:46:10.883Z,20.74
2018-04-18T15:48:41.684Z,20.87
2018-04-18T15:51:12.498Z,20.31
2018-04-18T15:53:43.303Z,22.07
2018-04-18T15:56:14.093Z,23.24
2018-04-18T15:58:44.922Z,22.33
2018-04-18T16:01:15.783Z,23.69
2018-04-18T16:03:46.612Z,23.97
2018-04-18T16:06:17.439Z,25.63
2018-04-18T16:08:48.317Z,26.46
2018-04-18T16:11:19.103Z,25.74
2018-04-18T16:13:49.929Z,25.76
2018-04-18T16:16:20.719Z,25.59
2018-04-18T16:18:51.537Z,26.17
2018-04-18T16:21:22.345Z,26.39
2018-04-18T16:23:53.140Z,27.39
2018-04-18T16:26:24.002Z,27.38
2018-04-18T16:28:54.813Z,27.56
2018-04-18T16:31:25.637Z,28.35
2018-04-18T16:33:56.473Z,27.96
2018-04-18T16:36:27.268Z,28.34
2018-04-18T16:38:58.080Z,28.64
2018-04-18T16:41:28.882Z,26.85
2018-04-18T16:43:59.718Z,28.08
2018-04-18T16:46:30.508Z,27.86
2018-04-18T16:49:01.355Z,27.30
2018-04-18T16:51:32.127Z,27.40
2018-04-18T16:54:03.006Z,28.23
2018-04-18T16:56:33.789Z,27.25
2018-04-18T16:59:04.625Z,27.32
2018-04-18T17:01:35.418Z,27.28
2018-04-18T17:04:06.257Z,28.07
2018-04-18T17:06:37.129Z,27.93
2018-04-18T17:09:07.923Z,28.12
2018-04-18T17:11:38.711Z,29.12
2018-04-18T17:14:09.501Z,28.95
2018-04-18T17:16:40.292Z,28.39
2018-04-18T17:19:11.190Z,28.68
2018-04-18T17:21:42.025Z,27.00
2018-04-18T17:24:12.867Z,27.53
2018-04-18T17:26:43.692Z,27.51
2018-04-18T17:29:14.592Z,27.48
2018-04-18T17:31:45.401Z,28.16
2018-04-18T17:34:16.219Z,28.70
2018-04-18T17:36:47.076Z,28.52
2018-04-18T17:39:17.919Z,29.08
2018-04-18T17:41:48.757Z,29.22
2018-04-18T17:44:19.617Z,29.22
2018-04-18T17:46:50.399Z,29.12
2018-04-18T17:49:21.298Z,29.86
2018-04-18T17:51:52.100Z,29.46
2018-04-18T17:54:22.952Z,29.70
2018-04-18T17:56:53.666Z,30.05
2018-04-18T17:59:24.475Z,29.93
2018-04-18T18:01:55.260Z,30.67
2018-04-18T18:04:26.066Z,30.87
2018-04-18T18:06:56.840Z,31.66
2018-04-18T18:09:27.643Z,31.15
2018-04-18T18:11:58.443Z,31.88
2018-04-18T18:14:29.297Z,31.92
2018-04-18T18:17:00.082Z,32.38
2018-04-18T18:19:30.891Z,32.86
2018-04-18T18:22:01.688Z,32.98
2018-04-18T18:24:32.507Z,33.54
2018-04-18T18:27:03.364Z,33.94
2018-04-18T18:29:34.213Z,34.66
2018-04-18T18:32:05.012Z,35.56
2018-04-18T18:34:35.843Z,36.50
2018-04-18T18:37:06.624Z,37.33
2018-04-18T18:39:37.410Z,38.87
2018-04-18T18:42:08.196Z,38.36
2018-04-18T18:44:38.991Z,38.80
2018-04-18T18:47:09.762Z,39.21
2018-04-18T18:49:40.571Z,39.81
2018-04-18T18:52:11.355Z,40.11
2018-04-18T18:54:42.148Z,40.82
2018-04-18T18:57:12.934Z,41.96
2018-04-18T18:59:43.725Z,43.21
2018-04-18T19:02:14.509Z,42.36
2018-04-18T19:04:45.330Z,42.88
2018-04-18T19:07:16.119Z,43.37
2018-04-18T19:09:46.960Z,43.30
2018-04-18T19:12:17.770Z,43.75
2018-04-18T19:14:48.644Z,43.62
2018-04-18T19:17:19.455Z,45.19
2018-04-18T19:19:50.278Z,45.95
2018-04-18T19:22:21.105Z,47.24
2018-04-18T19:24:51.906Z,48.20
2018-04-18T19:27:22.736Z,48.94
2018-04-18T19:29:53.564Z,48.84
2018-04-18T19:32:24.349Z,49.38
2018-04-18T19:34:55.146Z,49.11
2018-04-18T19:37:25.939Z,48.33
2018-04-18T19:39:56.764Z,49.80
2018-04-18T19:42:27.619Z,48.40
2018-04-18T19:44:58.433Z,50.17
2018-04-18T19:47:29.240Z,51.39
2018-04-18T19:50:00.051Z,51.53
2018-04-18T19:52:30.871Z,52.01
2018-04-18T19:55:01.643Z,51.91
2018-04-18T19:57:32.441Z,51.37
2018-04-18T20:00:03.245Z,50.48
2018-04-18T20:02:34.044Z,51.08
2018-04-18T20:05:04.923Z,52.20
2018-04-18T20:07:35.683Z,52.47
2018-04-18T20:10:06.584Z,53.04
2018-04-18T20:12:37.363Z,54.32
2018-04-18T20:15:08.184Z,54.39
2018-04-18T20:17:38.974Z,54.88
2018-04-18T20:20:09.791Z,55.85
2018-04-18T20:22:40.695Z,55.62
2018-04-18T20:25:11.476Z,56.91
2018-04-18T20:27:42.254Z,55.91
2018-04-18T20:30:13.069Z,55.64
2018-04-18T20:32:43.843Z,54.33
2018-04-18T20:35:14.632Z,55.16
2018-04-18T20:37:45.414Z,54.70
2018-04-18T20:40:16.278Z,55.96
2018-04-18T20:42:56.360Z,56.97
2018-04-18T20:45:27.162Z,57.41
2018-04-18T20:47:57.962Z,58.27
2018-04-18T20:50:28.812Z,59.01
2018-04-18T20:52:59.596Z,60.11
2018-04-18T20:55:30.422Z,59.43
2018-04-18T20:58:01.227Z,59.53
2018-04-18T21:00:32.096Z,60.45
2018-04-18T21:03:02.900Z,60.71
2018-04-18T21:05:33.721Z,61.37
2018-04-18T21:08:04.502Z,61.88
2018-04-18T21:10:35.318Z,62.46
2018-04-18T21:13:06.336Z,62.97
2018-04-18T21:15:37.347Z,63.66
2018-04-18T21:18:08.200Z,64.48
2018-04-18T21:20:39.140Z,65.05
2018-04-18T21:23:09.892Z,66.02
2018-04-18T21:25:40.765Z,66.28
2018-04-18T21:28:11.654Z,66.73
2018-04-18T21:30:42.516Z,67.12
2018-04-18T21:33:13.366Z,66.62
2018-04-18T21:35:44.203Z,65.47
2018-04-18T21:38:15.016Z,65.98
2018-04-18T21:40:45.856Z,65.62
2018-04-18T21:43:16.690Z,64.65
2018-04-18T21:45:47.537Z,65.04
2018-04-18T21:48:18.368Z,64.56
2018-04-18T21:50:49.216Z,64.37
2018-04-18T21:53:20.101Z,64.99
2018-04-18T21:55:50.895Z,65.48
2018-04-18T21:58:21.680Z,66.27
2018-04-18T22:00:52.497Z,67.07
2018-04-18T22:03:23.279Z,67.50
2018-04-18T22:05:54.149Z,68.17
2018-04-18T22:08:24.952Z,68.07
2018-04-18T22:10:55.751Z,68.32
2018-04-18T22:13:26.540Z,67.81
2018-04-18T22:15:57.332Z,67.98
2018-04-18T22:18:28.117Z,69.20
2018-04-18T22:20:58.978Z,68.93
2018-04-18T22:23:29.780Z,68.72
2018-04-18T22:26:00.603Z,68.44
2018-04-18T22:28:31.392Z,69.04
2018-04-18T22:31:02.211Z,69.26
2018-04-18T22:33:33.017Z,69.83
2018-04-18T22:36:03.851Z,70.60
2018-04-18T22:38:34.675Z,71.38
2018-04-18T22:41:05.482Z,71.75
2018-04-18T22:43:36.366Z,72.39
2018-04-18T22:46:07.360Z,73.24
2018-04-18T22:48:38.143Z,73.62
2018-04-18T22:51:08.951Z,73.83
2018-04-18T22:53:39.745Z,73.56
2018-04-18T22:56:10.546Z,73.50
2018-04-18T22:58:41.348Z,73.57
2018-04-18T23:01:12.168Z,72.94
2018-04-18T23:03:43.467Z,72.78
2018-04-18T23:06:14.252Z,72.66
2018-04-18T23:08:45.163Z,73.70
2018-04-18T23:11:15.979Z,74.27
2018-04-18T23:13:46.744Z,74.65
2018-04-18T23:16:17.527Z,74.41
2018-04-18T23:18:48.333Z,75.12
2018-04-18T23:21:19.123Z,75.61
2018-04-18T23:23:49.876Z,76.18
2018-04-18T23:26:20.654Z,76.69
2018-04-18T23:28:51.402Z,76.82
2018-04-18T23:31:22.191Z,75.90
2018-04-18T23:33:52.985Z,76.60
2018-04-18T23:36:23.799Z,75.63
2018-04-18T23:38:54.689Z,76.37
2018-04-18T23:41:25.499Z,75.77
2018-04-18T23:43:56.272Z,76.83
2018-04-18T23:46:27.079Z,77.69
2018-04-18T23:48:57.892Z,78.21
2018-04-18T23:51:28.639Z,78.56
2018-04-18T23:53:59.404Z,78.96
2018-04-18T23:56:30.168Z,78.75
2018-04-18T23:59:00.930Z,78.08
